Time;durP1;ratioP1;P1;durP2;ratioP2;P2;SDS_P1;SDS_P2;PMS_P1;PMS_P2;Temp;Humidity;BMP_temperature;BMP_pressure;BME280_temperature;BME280_humidity;BME280_pressure;Samples;Min_cycle;Max_cycle;Signal;HPM_P1;HPM_P2
2024/01/11 00:01:49;;;;;;;28.77;16.52;;;-5.20;99.90;;;;;;6128838;23;20065;-75
2024/01/11 00:04:14;;;;;;;28.48;17.42;;;-5.30;99.90;;;;;;6153368;23;20445;-75
2024/01/11 00:06:44;;;;;;;28.60;15.90;;;-5.30;99.90;;;;;;6129283;23;20013;-75
2024/01/11 00:09:09;;;;;;;28.17;15.63;;;-5.30;99.90;;;;;;6153616;23;20010;-75
2024/01/11 00:11:35;;;;;;;33.10;17.50;;;-5.30;99.90;;;;;;6153322;23;20060;-75
2024/01/11 00:14:01;;;;;;;36.53;17.55;;;-5.40;99.90;;;;;;6153093;23;20013;-75
2024/01/11 00:16:26;;;;;;;33.13;16.40;;;-5.40;99.90;;;;;;6153161;23;20018;-75
2024/01/11 00:18:52;;;;;;;39.50;19.08;;;-5.50;99.90;;;;;;6152585;23;20044;-75
2024/01/11 00:21:17;;;;;;;26.92;16.10;;;-5.50;99.90;;;;;;6152961;23;20100;-76
2024/01/11 00:23:43;;;;;;;29.48;15.77;;;-5.60;99.90;;;;;;6152789;23;20100;-76
2024/01/11 00:26:11;;;;;;;40.85;17.73;;;-5.70;99.90;;;;;;6153094;23;20014;-75
2024/01/11 00:28:37;;;;;;;35.90;19.00;;;-5.70;99.90;;;;;;6127097;23;20018;-75
2024/01/11 00:31:02;;;;;;;37.58;18.25;;;-5.70;99.90;;;;;;6152794;23;20021;-75
2024/01/11 00:33:28;;;;;;;32.22;17.20;;;-5.80;99.90;;;;;;6152801;23;20041;-75
2024/01/11 00:35:54;;;;;;;35.08;18.23;;;-5.80;99.90;;;;;;6152929;23;20430;-75
2024/01/11 00:38:20;;;;;;;37.15;20.13;;;-5.90;99.90;;;;;;6128687;23;20457;-75
2024/01/11 00:40:45;;;;;;;35.50;18.20;;;-5.90;99.90;;;;;;6153418;23;20479;-75
2024/01/11 00:43:11;;;;;;;36.70;18.45;;;-5.90;99.90;;;;;;6153211;23;20052;-75
2024/01/11 00:45:36;;;;;;;38.47;18.17;;;-5.90;99.90;;;;;;6153295;23;20442;-76
2024/01/11 00:48:03;;;;;;;30.50;16.02;;;-6.00;99.90;;;;;;6128839;23;20295;-76
2024/01/11 00:50:28;;;;;;;24.02;14.35;;;-6.00;99.90;;;;;;6128870;23;20078;-76
2024/01/11 00:52:54;;;;;;;29.35;16.13;;;-6.00;99.90;;;;;;6127892;23;20017;-76
2024/01/11 00:55:19;;;;;;;32.13;16.60;;;-6.00;99.90;;;;;;6127850;23;20014;-76
2024/01/11 00:57:45;;;;;;;37.85;18.33;;;-6.00;99.90;;;;;;6152868;23;20323;-76
2024/01/11 01:00:14;;;;;;;33.15;16.33;;;-6.00;99.90;;;;;;6152924;23;20458;-76
2024/01/11 01:02:40;;;;;;;35.55;18.77;;;-6.10;99.90;;;;;;6151732;23;20092;-76
2024/01/11 01:05:06;;;;;;;47.10;24.55;;;-6.20;99.90;;;;;;6152512;23;20056;-76
2024/01/11 01:07:32;;;;;;;34.47;17.10;;;-6.10;99.90;;;;;;6152390;23;20014;-76
2024/01/11 01:09:57;;;;;;;34.85;16.90;;;-6.00;99.90;;;;;;6153094;23;20009;-76
2024/01/11 01:12:24;;;;;;;40.88;19.83;;;-6.00;99.90;;;;;;6152745;23;20014;-76
2024/01/11 01:14:51;;;;;;;28.25;15.80;;;-6.00;99.90;;;;;;6127885;23;20088;-76
2024/01/11 01:17:16;;;;;;;19.63;12.38;;;-5.90;99.90;;;;;;6152925;23;20446;-76
2024/01/11 01:19:45;;;;;;;18.02;11.23;;;-5.90;99.90;;;;;;6152378;23;20041;-76
2024/01/11 01:22:10;;;;;;;28.83;15.07;;;-5.90;99.90;;;;;;6126568;23;20472;-76
2024/01/11 01:24:36;;;;;;;26.33;12.57;;;-5.80;99.90;;;;;;6127870;23;20104;-76
2024/01/11 01:27:02;;;;;;;34.05;17.25;;;-5.90;99.90;;;;;;6152607;23;20017;-76
2024/01/11 01:29:27;;;;;;;39.95;21.17;;;-5.90;99.90;;;;;;6127503;23;20024;-76
2024/01/11 01:31:53;;;;;;;24.65;13.85;;;-5.90;99.90;;;;;;6127037;23;20009;-76
2024/01/11 01:34:19;;;;;;;44.35;19.63;;;-5.90;99.90;;;;;;6127610;23;20052;-76
2024/01/11 01:36:44;;;;;;;34.47;17.50;;;-6.00;99.90;;;;;;6152463;23;20465;-76
2024/01/11 01:39:10;;;;;;;32.75;17.50;;;-6.00;99.90;;;;;;6127880;23;20017;-76
2024/01/11 01:41:36;;;;;;;34.95;18.77;;;-6.00;99.90;;;;;;6152338;23;20017;-76
2024/01/11 01:44:02;;;;;;;37.10;18.40;;;-6.00;99.90;;;;;;6152665;23;20101;-76
2024/01/11 01:46:28;;;;;;;48.00;23.83;;;-6.00;99.90;;;;;;6152347;23;20013;-76
2024/01/11 01:48:55;;;;;;;48.22;23.90;;;-6.00;99.90;;;;;;6152818;23;20013;-76
2024/01/11 01:51:21;;;;;;;40.50;19.88;;;-6.00;99.90;;;;;;6152733;23;20013;-76
2024/01/11 01:53:49;;;;;;;46.42;21.77;;;-6.00;99.90;;;;;;6152294;23;20009;-76
2024/01/11 01:56:16;;;;;;;30.38;16.25;;;-6.00;99.90;;;;;;6152663;23;20035;-76
2024/01/11 01:58:43;;;;;;;39.47;19.65;;;-6.00;99.90;;;;;;6128216;23;20124;-76
2024/01/11 02:01:09;;;;;;;44.97;21.83;;;-6.00;99.90;;;;;;6152436;23;20032;-76
2024/01/11 02:03:36;;;;;;;41.72;20.00;;;-6.00;99.90;;;;;;6152225;23;20013;-76
2024/01/11 02:06:03;;;;;;;36.40;18.35;;;-6.00;99.90;;;;;;6152659;23;20021;-76
2024/01/11 02:08:30;;;;;;;30.40;16.25;;;-6.00;99.90;;;;;;6152575;23;20024;-76
2024/01/11 02:10:57;;;;;;;37.83;18.80;;;-6.00;99.90;;;;;;6127810;23;20009;-76
2024/01/11 02:13:23;;;;;;;46.08;22.38;;;-6.10;99.90;;;;;;6152364;23;20092;-76
2024/01/11 02:15:49;;;;;;;39.15;20.95;;;-6.10;99.90;;;;;;6127514;23;20075;-75
2024/01/11 02:18:14;;;;;;;38.55;18.73;;;-6.10;99.90;;;;;;6127566;23;20062;-76
2024/01/11 02:20:40;;;;;;;41.28;19.95;;;-6.20;99.90;;;;;;6151226;23;20009;-76
2024/01/11 02:23:11;;;;;;;38.20;19.05;;;-6.20;99.90;;;;;;6151928;23;20136;-76
2024/01/11 02:25:36;;;;;;;36.47;18.98;;;-6.20;99.90;;;;;;6152044;23;20016;-76
2024/01/11 02:28:02;;;;;;;36.78;18.25;;;-6.30;99.90;;;;;;6127320;23;20010;-76
2024/01/11 02:30:28;;;;;;;34.63;18.30;;;-6.30;99.90;;;;;;6151106;23;20044;-76
2024/01/11 02:32:53;;;;;;;36.08;18.77;;;-6.40;99.90;;;;;;6126938;23;20010;-76
2024/01/11 02:35:19;;;;;;;37.55;18.42;;;-6.50;99.90;;;;;;6151778;23;20469;-76
2024/01/11 02:37:46;;;;;;;44.78;18.63;;;-6.60;99.90;;;;;;6152508;23;20005;-75
2024/01/11 02:40:13;;;;;;;40.65;19.58;;;-6.60;99.90;;;;;;6127177;23;20346;-76
2024/01/11 02:42:38;;;;;;;32.33;17.10;;;-6.60;99.90;;;;;;6152249;23;20337;-76
2024/01/11 02:45:05;;;;;;;40.53;19.25;;;-6.70;99.90;;;;;;6126916;23;20100;-76
2024/01/11 02:47:30;;;;;;;37.40;19.05;;;-6.70;99.90;;;;;;6127059;23;20450;-76
2024/01/11 02:49:56;;;;;;;37.78;19.27;;;-6.80;99.90;;;;;;6127153;23;20041;-76
2024/01/11 02:52:23;;;;;;;43.25;20.13;;;-6.80;99.90;;;;;;6127032;23;20312;-76
2024/01/11 02:54:49;;;;;;;35.28;18.35;;;-6.90;99.90;;;;;;6102710;23;20021;-76
2024/01/11 02:57:14;;;;;;;29.42;15.15;;;-7.00;99.90;;;;;;6102540;23;20013;-76
2024/01/11 02:59:40;;;;;;;41.05;19.92;;;-7.00;99.90;;;;;;6103218;23;20071;-76
2024/01/11 03:02:06;;;;;;;32.58;19.73;;;-7.00;99.90;;;;;;6127037;23;20049;-76
2024/01/11 03:04:31;;;;;;;42.58;20.67;;;-6.90;99.90;;;;;;6102621;23;20072;-76
2024/01/11 03:06:57;;;;;;;46.33;23.58;;;-6.90;99.90;;;;;;6102419;23;20017;-76
2024/01/11 03:09:23;;;;;;;44.35;21.73;;;-6.90;99.90;;;;;;6102913;23;20023;-76
2024/01/11 03:11:48;;;;;;;38.13;18.65;;;-6.90;99.90;;;;;;6101916;23;20484;-76
2024/01/11 03:14:14;;;;;;;41.50;21.23;;;-6.80;99.90;;;;;;6126932;23;20390;-76
2024/01/11 03:16:39;;;;;;;40.13;20.98;;;-6.80;99.90;;;;;;6127691;23;20446;-77
2024/01/11 03:19:05;;;;;;;33.35;17.85;;;-6.90;99.90;;;;;;6103000;23;20454;-76
2024/01/11 03:21:31;;;;;;;39.65;20.70;;;-6.90;99.90;;;;;;6126589;23;20024;-76
2024/01/11 03:23:57;;;;;;;31.70;18.15;;;-7.00;99.90;;;;;;6127035;23;20010;-76
2024/01/11 03:26:22;;;;;;;40.22;20.58;;;-7.00;99.90;;;;;;6127169;23;20018;-76
2024/01/11 03:28:48;;;;;;;36.65;17.80;;;-7.00;99.90;;;;;;6127013;23;20526;-75
2024/01/11 03:31:13;;;;;;;40.55;18.98;;;-7.00;99.90;;;;;;6101990;23;20018;-75
2024/01/11 03:33:39;;;;;;;37.88;20.05;;;-7.00;99.90;;;;;;6126632;23;20033;-76
2024/01/11 03:36:12;;;;;;;34.60;16.83;;;-7.10;99.90;;;;;;6102263;23;20009;-75
2024/01/11 03:38:37;;;;;;;44.42;21.95;;;-7.10;99.90;;;;;;6126274;23;20084;-76
2024/01/11 03:41:09;;;;;;;29.73;16.02;;;-7.10;99.90;;;;;;6126500;23;20453;-75
2024/01/11 03:43:35;;;;;;;35.08;19.02;;;-7.10;99.90;;;;;;6127025;23;20013;-76
2024/01/11 03:46:01;;;;;;;38.65;20.15;;;-7.10;99.90;;;;;;6133862;23;20017;-76
2024/01/11 03:48:26;;;;;;;46.97;20.80;;;-7.10;99.90;;;;;;6151804;23;20084;-76
2024/01/11 03:50:52;;;;;;;41.83;19.40;;;-7.00;99.90;;;;;;6126891;23;20124;-76
2024/01/11 03:53:17;;;;;;;46.53;21.00;;;-6.90;99.90;;;;;;6125369;23;20477;-75
2024/01/11 03:55:43;;;;;;;49.22;19.48;;;-6.90;99.90;;;;;;6126329;23;20018;-76
2024/01/11 03:58:08;;;;;;;44.75;20.75;;;-6.90;99.90;;;;;;6126831;23;20014;-76
2024/01/11 04:00:34;;;;;;;46.47;20.95;;;-6.90;99.90;;;;;;6151749;23;20014;-76
2024/01/11 04:03:01;;;;;;;39.08;21.17;;;-7.00;99.90;;;;;;6127255;23;20451;-75
2024/01/11 04:05:27;;;;;;;39.60;19.88;;;-7.10;99.90;;;;;;6128579;23;20021;-76
2024/01/11 04:07:52;;;;;;;43.63;21.13;;;-7.10;99.90;;;;;;6153774;23;20009;-75
2024/01/11 04:10:18;;;;;;;42.80;21.17;;;-7.10;99.90;;;;;;6128946;23;20461;-76
2024/01/11 04:12:43;;;;;;;45.67;21.42;;;-7.10;99.90;;;;;;6128878;23;20009;-75
2024/01/11 04:15:11;;;;;;;43.42;20.77;;;-7.10;99.90;;;;;;6128856;23;20064;-75
2024/01/11 04:17:38;;;;;;;47.08;22.48;;;-7.00;99.90;;;;;;6153729;23;20009;-75
2024/01/11 04:20:05;;;;;;;38.15;18.55;;;-7.00;99.90;;;;;;6153355;23;20009;-75
2024/01/11 04:22:30;;;;;;;41.70;19.42;;;-7.10;99.90;;;;;;6153455;23;20013;-75
2024/01/11 04:24:56;;;;;;;42.80;20.65;;;-7.10;99.90;;;;;;6153280;23;20013;-76
2024/01/11 04:27:21;;;;;;;45.70;20.65;;;-7.20;99.90;;;;;;6153661;23;20024;-76
2024/01/11 04:29:47;;;;;;;42.05;19.85;;;-7.20;99.90;;;;;;6152540;23;20018;-75
2024/01/11 04:32:13;;;;;;;37.67;17.63;;;-7.20;99.90;;;;;;6152548;23;20021;-75
2024/01/11 04:34:38;;;;;;;34.25;17.52;;;-7.20;99.90;;;;;;6128189;23;20013;-75
2024/01/11 04:37:04;;;;;;;33.90;19.80;;;-7.30;99.90;;;;;;6128113;23;20037;-76
2024/01/11 04:39:30;;;;;;;36.13;16.95;;;-7.30;99.90;;;;;;6152577;23;20013;-75
2024/01/11 04:41:56;;;;;;;50.60;23.23;;;-7.20;99.90;;;;;;6152864;23;20327;-75
2024/01/11 04:44:21;;;;;;;46.40;20.77;;;-7.10;99.90;;;;;;6128724;23;20070;-76
2024/01/11 04:46:47;;;;;;;41.92;17.75;;;-7.00;99.90;;;;;;6157340;23;20072;-74
2024/01/11 04:49:13;;;;;;;41.25;21.13;;;-7.00;99.90;;;;;;6131782;23;20021;-74
2024/01/11 04:51:38;;;;;;;46.33;21.85;;;-7.10;99.90;;;;;;6156876;23;20345;-74
2024/01/11 04:54:04;;;;;;;49.00;20.42;;;-7.10;99.90;;;;;;6157007;23;20097;-74
2024/01/11 04:56:30;;;;;;;39.75;18.10;;;-7.10;99.90;;;;;;6141381;23;20441;-74
2024/01/11 04:58:55;;;;;;;37.30;18.55;;;-7.10;99.90;;;;;;6103037;23;20104;-74
2024/01/11 05:01:21;;;;;;;38.65;17.88;;;-7.20;99.90;;;;;;6103406;23;20056;-74
2024/01/11 05:03:49;;;;;;;38.45;20.10;;;-7.20;99.90;;;;;;6102361;23;20456;-74
2024/01/11 05:06:22;;;;;;;37.85;21.40;;;-7.20;99.90;;;;;;6103748;23;20009;-74
2024/01/11 05:08:54;;;;;;;49.05;23.10;;;-7.20;99.90;;;;;;6102374;23;20399;-74
2024/01/11 05:11:21;;;;;;;41.65;20.65;;;-7.10;99.90;;;;;;6103046;23;20040;-74
2024/01/11 05:13:49;;;;;;;33.03;17.30;;;-7.00;99.90;;;;;;6102840;23;20020;-74
2024/01/11 05:16:37;;;;;;;46.97;22.98;;;-7.00;99.90;;;;;;6102860;23;20105;-74
2024/01/11 05:19:02;;;;;;;44.10;20.55;;;-7.00;99.90;;;;;;6102999;23;20014;-74
2024/01/11 05:21:28;;;;;;;60.03;26.42;;;-6.90;99.90;;;;;;6127218;23;20350;-74
2024/01/11 05:23:54;;;;;;;41.00;19.52;;;-6.90;99.90;;;;;;6102158;23;20380;-74
2024/01/11 05:26:20;;;;;;;53.88;23.90;;;-6.80;99.90;;;;;;6103250;23;20092;-74
2024/01/11 05:28:46;;;;;;;44.17;20.85;;;-6.90;99.90;;;;;;6127374;23;20084;-73
2024/01/11 05:31:14;;;;;;;53.40;25.10;;;-6.80;99.90;;;;;;6103035;23;20442;-74
2024/01/11 05:33:40;;;;;;;56.22;23.60;;;-6.80;99.90;;;;;;6102188;23;20132;-74
2024/01/11 05:36:06;;;;;;;41.45;22.10;;;-6.80;99.90;;;;;;6102480;23;20457;-74
2024/01/11 05:38:32;;;;;;;49.30;22.20;;;-6.80;99.90;;;;;;6102872;23;20013;-74
2024/01/11 05:40:58;;;;;;;50.85;24.98;;;-6.80;99.90;;;;;;6102341;23;20013;-74
2024/01/11 05:43:23;;;;;;;43.28;21.35;;;-6.70;99.90;;;;;;6102556;23;20021;-74
2024/01/11 05:45:50;;;;;;;70.07;27.40;;;-6.70;99.90;;;;;;6104399;23;20017;-74
2024/01/11 05:48:16;;;;;;;46.13;22.27;;;-6.60;99.90;;;;;;6127563;23;20017;-74
2024/01/11 05:50:42;;;;;;;50.63;23.60;;;-6.70;99.90;;;;;;6127059;23;20059;-73
2024/01/11 05:53:08;;;;;;;55.20;25.50;;;-6.70;99.90;;;;;;6126655;23;20444;-74
2024/01/11 05:55:34;;;;;;;49.63;22.77;;;-6.60;99.90;;;;;;6127391;23;20072;-74
2024/01/11 05:58:00;;;;;;;40.30;19.83;;;-6.70;99.90;;;;;;6127200;23;20024;-74
2024/01/11 06:00:26;;;;;;;49.85;23.33;;;-6.70;99.90;;;;;;6126940;23;20018;-74
2024/01/11 06:02:52;;;;;;;50.83;23.10;;;-6.80;99.90;;;;;;6127002;23;20101;-74
2024/01/11 06:05:17;;;;;;;46.13;22.80;;;-6.80;99.90;;;;;;6127065;23;20041;-74
2024/01/11 06:07:43;;;;;;;49.33;23.65;;;-6.90;99.90;;;;;;6127285;23;20018;-74
2024/01/11 06:10:09;;;;;;;50.58;22.67;;;-7.00;99.90;;;;;;6127054;23;20100;-74
2024/01/11 06:12:35;;;;;;;39.92;20.17;;;-6.90;99.90;;;;;;6126388;23;20021;-74
2024/01/11 06:15:02;;;;;;;42.25;20.92;;;-7.10;99.90;;;;;;6127287;23;20394;-74
2024/01/11 06:17:28;;;;;;;46.42;23.60;;;-7.10;99.90;;;;;;6150623;23;20371;-74
2024/01/11 06:19:54;;;;;;;47.08;19.80;;;-7.10;99.90;;;;;;6151474;23;20017;-74
2024/01/11 06:22:20;;;;;;;48.08;21.95;;;-7.10;99.90;;;;;;6126264;23;20355;-74
2024/01/11 06:24:45;;;;;;;43.45;21.25;;;-7.10;99.90;;;;;;6126249;23;20014;-74
2024/01/11 06:27:11;;;;;;;45.45;20.80;;;-7.10;99.90;;;;;;6126562;23;20367;-74
2024/01/11 06:29:37;;;;;;;42.80;21.42;;;-7.00;99.90;;;;;;6126955;23;20021;-74
2024/01/11 06:32:02;;;;;;;50.78;21.65;;;-6.90;99.90;;;;;;6126193;23;20135;-74
2024/01/11 06:34:28;;;;;;;44.08;19.95;;;-6.80;99.90;;;;;;6126123;23;20341;-74
2024/01/11 06:36:55;;;;;;;52.22;24.25;;;-6.70;99.90;;;;;;6126537;23;20450;-73
2024/01/11 06:39:21;;;;;;;47.13;22.45;;;-6.50;99.90;;;;;;6126488;23;20017;-74
2024/01/11 06:41:46;;;;;;;53.47;23.40;;;-6.40;99.90;;;;;;6151304;23;20010;-74
2024/01/11 06:44:12;;;;;;;46.33;22.60;;;-6.30;99.90;;;;;;6126023;23;20009;-74
2024/01/11 06:46:41;;;;;;;51.10;23.75;;;-6.20;99.90;;;;;;6126553;23;20084;-74
2024/01/11 06:49:07;;;;;;;55.58;25.05;;;-6.10;99.90;;;;;;6126381;23;20377;-74
2024/01/11 06:51:33;;;;;;;54.58;24.15;;;-6.00;99.90;;;;;;6126988;23;20067;-74
2024/01/11 06:54:00;;;;;;;63.78;25.98;;;-5.90;99.90;;;;;;6125763;23;20024;-74
2024/01/11 06:56:27;;;;;;;61.78;26.42;;;-5.80;99.90;;;;;;6126239;23;20009;-74
2024/01/11 06:58:54;;;;;;;59.33;26.92;;;-5.70;99.90;;;;;;6126147;23;20017;-74
2024/01/11 07:01:19;;;;;;;63.55;28.85;;;-5.70;99.90;;;;;;6126173;23;20013;-74
2024/01/11 07:03:45;;;;;;;52.50;26.52;;;-5.60;99.90;;;;;;6125989;23;20049;-74
2024/01/11 07:06:11;;;;;;;57.35;26.70;;;-5.50;99.90;;;;;;6126801;23;20458;-74
2024/01/11 07:08:36;;;;;;;60.80;27.90;;;-5.40;99.90;;;;;;6126249;23;20235;-74
2024/01/11 07:11:03;;;;;;;66.57;28.13;;;-5.30;99.90;;;;;;6127115;23;20084;-74
2024/01/11 07:13:29;;;;;;;61.33;26.60;;;-5.30;99.90;;;;;;6125778;23;20009;-74
2024/01/11 07:15:57;;;;;;;58.22;24.38;;;-5.20;99.90;;;;;;6125292;23;20024;-74
2024/01/11 07:18:22;;;;;;;62.50;26.67;;;-5.20;99.90;;;;;;6150873;23;20017;-73
2024/01/11 07:20:48;;;;;;;58.50;26.75;;;-5.10;99.90;;;;;;6125947;23;20291;-74
2024/01/11 07:23:15;;;;;;;53.60;24.63;;;-5.00;99.90;;;;;;6126530;23;20014;-74
2024/01/11 07:25:41;;;;;;;57.15;26.27;;;-4.90;99.90;;;;;;6126134;23;20010;-74
2024/01/11 07:28:07;;;;;;;53.40;25.60;;;-4.90;99.90;;;;;;6125512;23;20101;-74
2024/01/11 07:30:33;;;;;;;64.57;27.55;;;-4.80;99.90;;;;;;6125889;23;20390;-74
2024/01/11 07:32:58;;;;;;;58.00;25.08;;;-4.80;99.90;;;;;;6126298;23;20009;-74
2024/01/11 07:35:24;;;;;;;50.10;26.40;;;-4.70;99.90;;;;;;6150248;23;20037;-73
2024/01/11 07:37:50;;;;;;;60.03;27.55;;;-4.70;99.90;;;;;;6125592;23;20018;-75
2024/01/11 07:40:16;;;;;;;61.17;25.20;;;-4.60;99.90;;;;;;6127949;23;20017;-76
2024/01/11 07:42:43;;;;;;;61.40;27.02;;;-4.60;99.90;;;;;;6128354;23;20059;-78
2024/01/11 07:45:10;;;;;;;60.85;27.38;;;-4.50;99.90;;;;;;6128568;23;20024;-74
2024/01/11 07:47:38;;;;;;;57.90;27.42;;;-4.50;99.90;;;;;;6127139;23;20407;-75
2024/01/11 07:50:09;;;;;;;54.88;25.58;;;-4.40;99.90;;;;;;6128306;23;20013;-75
2024/01/11 07:52:36;;;;;;;55.47;25.85;;;-4.30;99.90;;;;;;6128494;23;20435;-76
2024/01/11 07:55:07;;;;;;;56.75;25.45;;;-4.30;99.90;;;;;;6128120;23;20016;-76
2024/01/11 07:57:39;;;;;;;55.58;24.83;;;-4.30;99.90;;;;;;6127899;23;20009;-76
2024/01/11 08:00:09;;;;;;;57.13;25.80;;;-4.20;99.90;;;;;;6128326;23;20037;-76
2024/01/11 08:02:35;;;;;;;49.50;23.85;;;-4.20;99.90;;;;;;6128436;23;20053;-76
2024/01/11 08:05:01;;;;;;;56.85;27.05;;;-4.10;99.90;;;;;;6128001;23;20018;-76
2024/01/11 08:07:30;;;;;;;60.65;27.23;;;-4.10;99.90;;;;;;6127890;23;20020;-75
2024/01/11 08:09:56;;;;;;;50.42;24.33;;;-4.00;99.90;;;;;;6128323;23;20017;-75
2024/01/11 08:12:22;;;;;;;58.70;25.77;;;-4.00;99.90;;;;;;6126968;23;20049;-75
2024/01/11 08:14:48;;;;;;;56.45;25.42;;;-3.90;99.90;;;;;;6127952;23;20009;-75
2024/01/11 08:17:16;;;;;;;56.00;25.27;;;-3.90;99.90;;;;;;6127864;23;20485;-74
2024/01/11 08:19:42;;;;;;;58.20;25.55;;;-3.80;99.90;;;;;;6128422;23;20089;-75
2024/01/11 08:22:09;;;;;;;56.75;27.02;;;-3.70;99.90;;;;;;6128158;23;20096;-75
2024/01/11 08:24:35;;;;;;;56.35;26.05;;;-3.60;99.90;;;;;;6127190;23;20076;-75
2024/01/11 08:27:01;;;;;;;57.53;24.77;;;-3.60;99.90;;;;;;6128000;23;20009;-74
2024/01/11 08:29:27;;;;;;;54.80;26.50;;;-3.50;99.90;;;;;;6128055;23;20021;-74
2024/01/11 08:31:54;;;;;;;52.10;25.23;;;-3.50;99.90;;;;;;6128739;23;20013;-73
2024/01/11 08:34:21;;;;;;;55.70;25.02;;;-3.40;99.90;;;;;;6128210;23;20010;-74
2024/01/11 08:36:47;;;;;;;55.53;25.23;;;-3.40;99.90;;;;;;6152015;23;20014;-74
2024/01/11 08:39:14;;;;;;;53.85;24.98;;;-3.30;99.90;;;;;;6128377;23;20315;-74
2024/01/11 08:41:40;;;;;;;51.25;24.02;;;-3.30;99.90;;;;;;6127871;23;20036;-74
2024/01/11 08:44:06;;;;;;;55.88;25.13;;;-3.30;99.90;;;;;;6127799;23;20092;-74
2024/01/11 08:46:35;;;;;;;56.88;25.50;;;-3.20;99.90;;;;;;6128124;23;20041;-74
2024/01/11 08:49:03;;;;;;;55.10;24.88;;;-3.10;99.90;;;;;;6127500;23;20018;-73
2024/01/11 08:51:34;;;;;;;54.33;26.63;;;-3.10;99.90;;;;;;6127359;23;20014;-73
2024/01/11 08:53:59;;;;;;;53.45;25.33;;;-3.00;99.90;;;;;;6127662;23;20020;-73
2024/01/11 08:56:25;;;;;;;57.60;25.70;;;-2.90;99.90;;;;;;6128266;23;20041;-74
2024/01/11 08:58:51;;;;;;;62.08;27.13;;;-2.90;99.90;;;;;;6127516;23;20045;-76
2024/01/11 09:01:17;;;;;;;52.88;24.20;;;-2.80;99.90;;;;;;6128057;23;20469;-76
2024/01/11 09:03:43;;;;;;;59.08;25.00;;;-2.70;99.90;;;;;;6103561;23;20014;-74
2024/01/11 09:06:10;;;;;;;54.25;24.58;;;-2.70;99.90;;;;;;6127549;23;20441;-77
2024/01/11 09:08:35;;;;;;;55.92;26.63;;;-2.70;99.90;;;;;;6127677;23;20022;-77
2024/01/11 09:11:01;;;;;;;58.10;24.52;;;-2.60;99.90;;;;;;6127989;23;20096;-76
2024/01/11 09:13:28;;;;;;;57.80;26.63;;;-2.60;99.90;;;;;;6127591;23;20024;-75
2024/01/11 09:15:55;;;;;;;56.95;26.20;;;-2.50;99.90;;;;;;6127247;23;20009;-75
2024/01/11 09:18:21;;;;;;;53.58;24.38;;;-2.40;99.90;;;;;;6127062;23;20005;-74
2024/01/11 09:20:48;;;;;;;54.95;25.63;;;-2.40;99.90;;;;;;6128299;23;20100;-75
2024/01/11 09:23:14;;;;;;;57.72;26.02;;;-2.30;99.90;;;;;;6126724;23;20499;-77
2024/01/11 09:25:40;;;;;;;60.17;25.58;;;-2.20;99.90;;;;;;6128536;23;20021;-74
2024/01/11 09:28:05;;;;;;;62.53;25.63;;;-2.10;99.90;;;;;;6128047;23;20013;-75
2024/01/11 09:30:32;;;;;;;53.70;26.35;;;-2.10;99.90;;;;;;6127346;23;20021;-75
2024/01/11 09:32:57;;;;;;;96.00;72.75;;;-2.00;99.90;;;;;;6127939;23;20018;-75
2024/01/11 09:35:23;;;;;;;57.35;25.35;;;-2.00;99.90;;;;;;6151780;23;20014;-75
2024/01/11 09:37:52;;;;;;;91.22;72.70;;;-1.90;99.90;;;;;;6128264;23;20005;-75
2024/01/11 09:40:18;;;;;;;57.78;27.25;;;-1.80;99.90;;;;;;6127660;23;20017;-75
2024/01/11 09:42:44;;;;;;;61.33;26.67;;;-1.80;99.90;;;;;;6126810;23;20102;-75
2024/01/11 09:45:13;;;;;;;55.13;26.27;;;-1.70;99.90;;;;;;6127272;23;20057;-77
2024/01/11 09:47:39;;;;;;;55.30;25.00;;;-1.70;99.90;;;;;;6127405;23;20048;-77
2024/01/11 09:50:07;;;;;;;90.40;75.25;;;-1.70;99.90;;;;;;6127331;23;20096;-78
2024/01/11 09:52:32;;;;;;;87.07;72.63;;;-1.60;99.90;;;;;;6127746;23;20018;-75
2024/01/11 09:54:58;;;;;;;65.40;29.92;;;-1.50;99.90;;;;;;6127030;23;20045;-74
2024/01/11 09:57:28;;;;;;;95.80;75.97;;;-1.50;99.90;;;;;;6127004;23;20288;-74
2024/01/11 09:59:58;;;;;;;56.13;27.83;;;-1.40;99.90;;;;;;6127807;23;20406;-74
2024/01/11 10:02:26;;;;;;;91.70;73.13;;;-1.30;99.90;;;;;;6127552;23;20020;-74
2024/01/11 10:04:52;;;;;;;53.28;27.23;;;-1.20;99.90;;;;;;6152100;23;20010;-74
2024/01/11 10:07:21;;;;;;;51.83;26.65;;;-1.10;99.90;;;;;;6152083;23;20481;-74
2024/01/11 10:09:47;;;;;;;57.65;26.38;;;-1.10;99.90;;;;;;6126703;23;20018;-74
2024/01/11 10:12:13;;;;;;;50.75;24.35;;;-1.10;99.90;;;;;;6127174;23;20029;-74
2024/01/11 10:14:39;;;;;;;52.17;25.80;;;-0.90;99.90;;;;;;6127171;23;20096;-74
2024/01/11 10:17:06;;;;;;;92.75;72.90;;;-1.00;99.90;;;;;;6127420;23;20095;-74
2024/01/11 10:19:32;;;;;;;91.30;73.63;;;-0.90;99.90;;;;;;6126771;23;20013;-74
2024/01/11 10:22:00;;;;;;;83.28;66.80;;;-0.80;99.90;;;;;;6127278;23;20181;-74
2024/01/11 10:24:47;;;;;;;53.10;24.80;;;-0.70;99.90;;;;;;6127339;23;20096;-75
2024/01/11 10:27:17;;;;;;;53.33;23.35;;;-0.50;99.90;;;;;;6151807;23;20019;-75
2024/01/11 10:29:51;;;;;;;51.72;23.52;;;-0.60;99.90;;;;;;6152387;23;20080;-75
2024/01/11 10:32:18;;;;;;;43.63;22.05;;;-0.60;99.90;;;;;;6151878;23;20013;-75
2024/01/11 10:34:44;;;;;;;73.10;61.08;;;-0.50;99.90;;;;;;6127145;23;20064;-75
2024/01/11 10:37:10;;;;;;;81.18;65.13;;;-0.40;99.90;;;;;;6126274;23;20017;-74
2024/01/11 10:39:37;;;;;;;51.70;25.67;;;-0.30;99.90;;;;;;6126852;23;20017;-74
2024/01/11 10:42:07;;;;;;;50.97;25.20;;;-0.30;99.90;;;;;;6152291;23;20020;-74
2024/01/11 10:44:42;;;;;;;77.85;63.03;;;-0.20;99.90;;;;;;6127183;23;20020;-74
2024/01/11 10:47:10;;;;;;;77.15;64.15;;;-0.20;99.90;;;;;;6146988;23;20071;-78
2024/01/11 10:49:39;;;;;;;74.53;62.38;;;-0.10;99.90;;;;;;6182321;23;20009;-78
2024/01/11 10:52:07;;;;;;;75.00;62.35;;;0.00;99.90;;;;;;6157712;23;20013;-78
2024/01/11 10:54:34;;;;;;;72.05;61.22;;;0.10;99.90;;;;;;6156763;23;20013;-79
2024/01/11 10:57:04;;;;;;;51.22;25.60;;;0.20;99.90;;;;;;6189032;23;20514;-79
2024/01/11 10:59:31;;;;;;;73.43;59.78;;;0.30;99.90;;;;;;6128034;23;20021;-79
2024/01/11 11:02:01;;;;;;;70.10;57.65;;;0.30;99.90;;;;;;6153261;23;20472;-80
2024/01/11 11:04:30;;;;;;;69.88;59.30;;;0.40;99.90;;;;;;6151775;23;20021;-79
2024/01/11 11:06:59;;;;;;;40.15;22.75;;;0.40;99.90;;;;;;6152191;23;20476;-81
2024/01/11 11:09:30;;;;;;;68.50;57.47;;;0.50;99.90;;;;;;6126973;23;20032;-80
2024/01/11 11:11:58;;;;;;;65.65;56.25;;;0.50;99.90;;;;;;6127733;23;20009;-80
2024/01/11 11:14:24;;;;;;;47.00;21.73;;;0.50;99.90;;;;;;6153718;23;20016;-80
2024/01/11 11:16:51;;;;;;;39.10;20.35;;;0.50;99.90;;;;;;6129697;23;20009;-83
2024/01/11 11:19:19;;;;;;;66.88;56.65;;;0.50;99.90;;;;;;6153848;23;20014;-81
2024/01/11 11:21:45;;;;;;;67.65;57.50;;;0.50;99.90;;;;;;6128994;23;20346;-80
2024/01/11 11:24:16;;;;;;;65.75;56.97;;;0.60;99.90;;;;;;6153475;23;20013;-81
2024/01/11 11:26:42;;;;;;;66.75;57.88;;;0.70;99.90;;;;;;6129328;23;20010;-80
2024/01/11 11:29:08;;;;;;;64.85;55.50;;;0.70;99.90;;;;;;6129020;23;20045;-80
2024/01/11 11:31:53;;;;;;;71.28;61.17;;;0.70;99.90;;;;;;6154090;23;20037;-80
2024/01/11 11:34:42;;;;;;;67.10;57.72;;;0.70;99.90;;;;;;6153695;23;20006;-80
2024/01/11 11:37:09;;;;;;;65.35;57.20;;;0.80;99.90;;;;;;6153760;23;20438;-80
2024/01/11 11:39:35;;;;;;;64.47;56.05;;;0.80;99.90;;;;;;6129359;23;20049;-79
2024/01/11 11:42:01;;;;;;;65.75;57.10;;;0.80;99.90;;;;;;6153778;23;20024;-80
2024/01/11 11:44:27;;;;;;;62.53;55.58;;;0.90;99.90;;;;;;6152273;23;20014;-80
2024/01/11 11:46:53;;;;;;;62.53;55.45;;;0.90;99.90;;;;;;6138295;23;20014;-80
2024/01/11 11:49:18;;;;;;;62.60;54.53;;;0.90;99.90;;;;;;6124561;23;20043;-80
2024/01/11 11:51:44;;;;;;;64.90;55.80;;;0.90;99.90;;;;;;6099937;23;20010;-80
2024/01/11 11:54:10;;;;;;;61.72;54.85;;;0.90;99.90;;;;;;6100031;23;20014;-80
2024/01/11 11:56:36;;;;;;;62.17;54.22;;;1.00;99.90;;;;;;6099845;23;20179;-79
2024/01/11 11:59:03;;;;;;;65.10;55.65;;;1.00;99.90;;;;;;6124669;23;20024;-80
2024/01/11 12:01:31;;;;;;;63.05;55.15;;;1.00;99.90;;;;;;6124420;23;20018;-80
2024/01/11 12:03:57;;;;;;;61.88;54.38;;;1.00;99.90;;;;;;6099793;23;20018;-83
2024/01/11 12:06:24;;;;;;;61.25;53.83;;;1.10;99.90;;;;;;6123794;23;20392;-80
2024/01/11 12:08:52;;;;;;;57.35;50.08;;;1.10;99.90;;;;;;6124395;23;20018;-80
2024/01/11 12:11:22;;;;;;;59.47;50.00;;;1.20;99.90;;;;;;6124517;23;20521;-80
2024/01/11 12:13:49;;;;;;;62.13;52.17;;;1.20;99.90;;;;;;6124169;23;20109;-80
2024/01/11 12:16:14;;;;;;;61.33;53.03;;;1.20;99.90;;;;;;6122874;23;20010;-80
2024/01/11 12:18:41;;;;;;;62.15;51.80;;;1.30;99.90;;;;;;6123567;23;20473;-80
2024/01/11 12:21:07;;;;;;;58.75;51.05;;;1.30;99.90;;;;;;6124010;23;20166;-80
2024/01/11 12:23:34;;;;;;;59.45;52.55;;;1.30;99.90;;;;;;6099553;23;20474;-80
2024/01/11 12:26:07;;;;;;;61.63;52.13;;;1.30;99.90;;;;;;6123547;23;20049;-80